Time;durP1;ratioP1;P1;durP2;ratioP2;P2;SDS_P1;SDS_P2;PMS_P1;PMS_P2;Temp;Humidity;BMP_temperature;BMP_pressure;BME280_temperature;BME280_humidity;BME280_pressure;Samples;Min_cycle;Max_cycle;Signal;HPM_P1;HPM_P2
2022/04/01 00:01:12;;;;;;;17.35;14.15;;;;;;;;;;5097438;28;20369;-64
2022/04/01 00:03:37;;;;;;;14.68;13.10;;;;;;;;;;5100700;28;20468;-64
2022/04/01 00:06:03;;;;;;;15.48;13.88;;;;;;;;;;5113365;28;20026;-63
2022/04/01 00:08:28;;;;;;;15.25;13.02;;;;;;;;;;5109787;28;20020;-64
2022/04/01 00:10:53;;;;;;;15.40;13.73;;;;;;;;;;5114514;28;20023;-63
2022/04/01 00:13:19;;;;;;;15.38;13.77;;;;;;;;;;5109590;28;20023;-64
2022/04/01 00:15:44;;;;;;;16.02;13.60;;;;;;;;;;5111163;28;20048;-64
2022/04/01 00:18:10;;;;;;;15.40;13.80;;;;;;;;;;5103147;28;20069;-64
2022/04/01 00:20:35;;;;;;;14.32;12.82;;;;;;;;;;5103504;28;20081;-64
2022/04/01 00:23:01;;;;;;;16.65;14.25;;;;;;;;;;5112293;28;20459;-64
2022/04/01 00:25:26;;;;;;;16.05;13.40;;;;;;;;;;5114644;28;20428;-65
2022/04/01 00:27:51;;;;;;;15.45;13.57;;;;;;;;;;5107492;28;20069;-63
2022/04/01 00:30:16;;;;;;;15.10;13.10;;;;;;;;;;5103816;28;20383;-63
2022/04/01 00:32:42;;;;;;;14.60;12.90;;;;;;;;;;5114145;28;20035;-64
2022/04/01 00:35:07;;;;;;;15.20;12.25;;;;;;;;;;5102574;28;20031;-64
2022/04/01 00:37:33;;;;;;;15.10;13.20;;;;;;;;;;5114377;28;20031;-64
2022/04/01 00:39:58;;;;;;;15.90;12.10;;;;;;;;;;5099856;28;20179;-64
2022/04/01 00:42:25;;;;;;;15.07;13.43;;;;;;;;;;5106224;28;20042;-64
2022/04/01 00:44:51;;;;;;;13.80;12.35;;;;;;;;;;5105763;28;20492;-64
2022/04/01 00:47:17;;;;;;;14.70;12.43;;;;;;;;;;5112363;28;20031;-64
2022/04/01 00:49:43;;;;;;;14.27;12.68;;;;;;;;;;5114228;27;20050;-65
2022/04/01 00:52:09;;;;;;;14.25;11.65;;;;;;;;;;5110976;28;20032;-64
2022/04/01 00:54:35;;;;;;;13.95;12.07;;;;;;;;;;5109488;27;20028;-64
2022/04/01 00:57:01;;;;;;;14.52;12.13;;;;;;;;;;5100189;28;20521;-64
2022/04/01 00:59:27;;;;;;;13.52;11.05;;;;;;;;;;5111982;28;20112;-64
2022/04/01 01:01:52;;;;;;;13.40;11.43;;;;;;;;;;5108687;28;20438;-64
2022/04/01 01:04:19;;;;;;;12.98;11.55;;;;;;;;;;5108748;28;20024;-64
2022/04/01 01:06:46;;;;;;;12.77;11.45;;;;;;;;;;5108370;28;20470;-64
2022/04/01 01:09:12;;;;;;;13.38;11.75;;;;;;;;;;5107184;28;20012;-64
2022/04/01 01:11:38;;;;;;;11.55;10.27;;;;;;;;;;5097214;28;20007;-64
2022/04/01 01:14:08;;;;;;;13.77;11.00;;;;;;;;;;5110431;28;20569;-64
2022/04/01 01:16:34;;;;;;;13.70;10.65;;;;;;;;;;5100818;28;20024;-64
2022/04/01 01:19:00;;;;;;;11.68;10.52;;;;;;;;;;5105716;28;20084;-64
2022/04/01 01:21:26;;;;;;;11.77;10.57;;;;;;;;;;5112523;28;20527;-63
2022/04/01 01:23:52;;;;;;;13.93;10.30;;;;;;;;;;5100896;28;20364;-63
2022/04/01 01:26:18;;;;;;;12.27;9.50;;;;;;;;;;5107612;28;20023;-63
2022/04/01 01:28:43;;;;;;;11.47;9.20;;;;;;;;;;5112054;28;20038;-63
2022/04/01 01:31:08;;;;;;;11.77;9.63;;;;;;;;;;5108933;28;20024;-64
2022/04/01 01:33:33;;;;;;;12.40;9.30;;;;;;;;;;5094820;28;20028;-64
2022/04/01 01:35:59;;;;;;;11.47;8.63;;;;;;;;;;5100312;28;20032;-63
2022/04/01 01:38:24;;;;;;;10.63;8.87;;;;;;;;;;5093467;28;20022;-63
2022/04/01 01:40:49;;;;;;;12.43;9.73;;;;;;;;;;5093254;28;20118;-63
2022/04/01 01:43:14;;;;;;;11.40;8.90;;;;;;;;;;5104591;28;20039;-64
2022/04/01 01:45:39;;;;;;;10.97;9.43;;;;;;;;;;5108582;28;20408;-63
2022/04/01 01:48:05;;;;;;;12.45;10.43;;;;;;;;;;5092096;28;20106;-64
2022/04/01 01:55:58;;;;;;;11.40;10.00;;;;;;;;;;5094660;28;20086;-63
2022/04/01 01:58:23;;;;;;;12.40;9.27;;;;;;;;;;5111431;28;20055;-63
2022/04/01 02:00:49;;;;;;;12.70;10.20;;;;;;;;;;5109867;28;20024;-64
2022/04/01 02:03:14;;;;;;;14.97;10.40;;;;;;;;;;5104292;28;20488;-64
2022/04/01 02:05:40;;;;;;;12.55;9.20;;;;;;;;;;5110799;28;20484;-64
2022/04/01 02:08:05;;;;;;;11.40;9.60;;;;;;;;;;5097821;28;20027;-63
2022/04/01 02:10:31;;;;;;;12.48;9.48;;;;;;;;;;5112409;28;20451;-64
2022/04/01 02:12:58;;;;;;;9.93;8.93;;;;;;;;;;5096376;28;20385;-64
2022/04/01 02:15:23;;;;;;;11.55;9.55;;;;;;;;;;5094586;28;20521;-64
2022/04/01 02:17:49;;;;;;;11.80;8.52;;;;;;;;;;5105383;28;20060;-63
2022/04/01 02:20:14;;;;;;;12.90;10.32;;;;;;;;;;5111058;28;20059;-63
2022/04/01 02:22:39;;;;;;;11.18;8.75;;;;;;;;;;5099535;28;20071;-64
2022/04/01 02:25:07;;;;;;;11.88;8.70;;;;;;;;;;5102902;28;20019;-63
2022/04/01 02:27:32;;;;;;;12.10;9.23;;;;;;;;;;5105793;28;20012;-64
2022/04/01 02:29:58;;;;;;;11.43;9.00;;;;;;;;;;5107856;27;20503;-63
2022/04/01 02:32:23;;;;;;;12.93;9.05;;;;;;;;;;5096161;28;20392;-64
2022/04/01 02:34:49;;;;;;;11.65;8.95;;;;;;;;;;5110341;28;20027;-63
2022/04/01 02:37:14;;;;;;;10.57;8.23;;;;;;;;;;5107675;28;20027;-64
2022/04/01 02:39:39;;;;;;;10.63;8.07;;;;;;;;;;5098908;28;20032;-63
2022/04/01 02:42:05;;;;;;;11.80;8.40;;;;;;;;;;5100629;28;20118;-63
2022/04/01 02:44:30;;;;;;;10.88;8.55;;;;;;;;;;5111988;28;20022;-62
2022/04/01 02:46:55;;;;;;;9.93;7.45;;;;;;;;;;5107755;28;20028;-64
2022/04/01 02:49:20;;;;;;;9.73;7.60;;;;;;;;;;5101348;28;20427;-63
2022/04/01 02:51:46;;;;;;;9.10;7.00;;;;;;;;;;5109047;28;20038;-63
2022/04/01 02:54:12;;;;;;;10.05;6.28;;;;;;;;;;5102260;28;20018;-63
2022/04/01 02:56:38;;;;;;;10.77;7.05;;;;;;;;;;5094753;28;20024;-62
2022/04/01 02:59:07;;;;;;;10.90;6.85;;;;;;;;;;5110504;28;20044;-63
2022/04/01 03:01:32;;;;;;;8.90;6.10;;;;;;;;;;5108842;28;20024;-63
2022/04/01 03:03:58;;;;;;;8.20;6.45;;;;;;;;;;5110801;28;20043;-64
2022/04/01 03:06:24;;;;;;;8.95;5.95;;;;;;;;;;5110569;28;20403;-62
2022/04/01 03:08:49;;;;;;;8.98;5.70;;;;;;;;;;5093148;28;20103;-62
2022/04/01 03:11:15;;;;;;;10.23;6.18;;;;;;;;;;5098702;28;20034;-63
2022/04/01 03:13:41;;;;;;;9.37;6.07;;;;;;;;;;5111116;28;20088;-63
2022/04/01 03:16:06;;;;;;;6.57;5.68;;;;;;;;;;5102056;28;20032;-64
2022/04/01 03:18:32;;;;;;;10.15;6.38;;;;;;;;;;5104786;28;20111;-63
2022/04/01 03:20:57;;;;;;;9.07;6.45;;;;;;;;;;5098111;28;20027;-64
2022/04/01 03:23:22;;;;;;;7.43;5.65;;;;;;;;;;5111972;28;20071;-64
2022/04/01 03:25:49;;;;;;;10.32;5.90;;;;;;;;;;5108184;28;20023;-64
2022/04/01 03:28:14;;;;;;;7.55;4.85;;;;;;;;;;5104990;28;20032;-64
2022/04/01 03:30:39;;;;;;;9.18;5.30;;;;;;;;;;5099858;28;20019;-63
2022/04/01 03:33:05;;;;;;;8.70;4.72;;;;;;;;;;5110819;28;20039;-63
2022/04/01 03:35:32;;;;;;;6.57;5.40;;;;;;;;;;5111446;28;20067;-64
2022/04/01 03:37:58;;;;;;;9.85;5.63;;;;;;;;;;5106166;28;20063;-63
2022/04/01 03:40:23;;;;;;;8.57;4.55;;;;;;;;;;5106108;28;20125;-63
2022/04/01 03:42:51;;;;;;;10.60;5.35;;;;;;;;;;5105527;28;20027;-63
2022/04/01 03:45:17;;;;;;;9.20;4.97;;;;;;;;;;5105025;28;20024;-64
2022/04/01 03:47:45;;;;;;;9.45;5.10;;;;;;;;;;5108880;28;20376;-63
2022/04/01 03:50:11;;;;;;;7.05;4.72;;;;;;;;;;5107797;28;20019;-65
2022/04/01 03:52:37;;;;;;;8.32;4.70;;;;;;;;;;5097486;28;20499;-63
2022/04/01 03:55:04;;;;;;;9.05;5.15;;;;;;;;;;5095241;28;20063;-63
2022/04/01 03:57:37;;;;;;;8.63;4.60;;;;;;;;;;5104426;28;20051;-63
2022/04/01 04:00:03;;;;;;;8.07;4.80;;;;;;;;;;5112530;28;20069;-64
2022/04/01 04:02:31;;;;;;;7.60;4.15;;;;;;;;;;5112066;28;20070;-64
2022/04/01 04:04:57;;;;;;;7.47;4.63;;;;;;;;;;5114768;28;20035;-63
2022/04/01 04:07:24;;;;;;;10.20;4.88;;;;;;;;;;5108434;28;20039;-64
2022/04/01 04:09:49;;;;;;;8.45;4.60;;;;;;;;;;5102101;28;20077;-63
2022/04/01 04:12:16;;;;;;;9.97;5.07;;;;;;;;;;5107741;28;20035;-63
2022/04/01 04:14:44;;;;;;;7.07;4.53;;;;;;;;;;5114481;28;20027;-65
2022/04/01 04:17:11;;;;;;;9.15;4.10;;;;;;;;;;5112875;28;20023;-63
2022/04/01 04:19:59;;;;;;;6.90;4.13;;;;;;;;;;5113080;28;20032;-62
2022/04/01 04:22:40;;;;;;;6.95;4.38;;;;;;;;;;5095498;28;20035;-63
2022/04/01 04:25:10;;;;;;;7.37;4.17;;;;;;;;;;5097346;28;20545;-62
2022/04/01 04:27:36;;;;;;;5.60;4.00;;;;;;;;;;5109772;28;20081;-63
2022/04/01 04:30:03;;;;;;;5.47;3.92;;;;;;;;;;5098307;28;20028;-63
2022/04/01 04:32:49;;;;;;;8.10;4.35;;;;;;;;;;5111671;28;20032;-62
2022/04/01 04:35:16;;;;;;;5.82;4.05;;;;;;;;;;5106902;28;20158;-63
2022/04/01 04:37:45;;;;;;;5.20;3.63;;;;;;;;;;5109326;28;20024;-63
2022/04/01 04:40:12;;;;;;;7.60;4.13;;;;;;;;;;5093555;28;20035;-63
2022/04/01 04:42:38;;;;;;;5.47;3.80;;;;;;;;;;5113849;28;20102;-63
2022/04/01 04:45:04;;;;;;;7.22;3.85;;;;;;;;;;5112913;28;20528;-63
2022/04/01 04:47:30;;;;;;;5.83;3.43;;;;;;;;;;5096016;28;20433;-63
2022/04/01 04:49:57;;;;;;;7.27;3.90;;;;;;;;;;5110421;28;20475;-62
2022/04/01 04:52:24;;;;;;;6.40;3.70;;;;;;;;;;5112314;28;20034;-64
2022/04/01 04:54:50;;;;;;;3.93;3.10;;;;;;;;;;5114733;28;20140;-63
2022/04/01 04:57:18;;;;;;;5.50;3.33;;;;;;;;;;5105786;28;20525;-62
2022/04/01 04:59:45;;;;;;;6.82;2.85;;;;;;;;;;5113231;28;20391;-63
2022/04/01 05:02:14;;;;;;;6.43;2.72;;;;;;;;;;5104580;28;20055;-63
2022/04/01 05:04:58;;;;;;;5.27;3.07;;;;;;;;;;5094894;28;20465;-64
2022/04/01 05:07:29;;;;;;;5.07;2.70;;;;;;;;;;5097015;28;20019;-64
2022/04/01 05:10:16;;;;;;;4.05;2.35;;;;;;;;;;5114085;28;22456;-67
2022/04/01 05:12:42;;;;;;;3.67;2.30;;;;;;;;;;5100505;28;20036;-64
2022/04/01 05:15:08;;;;;;;7.97;2.87;;;;;;;;;;5112254;28;20024;-63
2022/04/01 05:17:37;;;;;;;5.25;2.85;;;;;;;;;;5101317;28;20028;-64
2022/04/01 05:20:15;;;;;;;4.43;2.70;;;;;;;;;;5094490;28;20024;-64
2022/04/01 05:22:43;;;;;;;7.00;2.58;;;;;;;;;;5103458;28;20372;-63
2022/04/01 05:25:10;;;;;;;5.20;2.33;;;;;;;;;;5101491;28;20023;-64
2022/04/01 05:27:40;;;;;;;3.72;2.33;;;;;;;;;;5095271;28;20027;-64
2022/04/01 05:30:12;;;;;;;4.33;2.53;;;;;;;;;;5111050;28;20032;-63
2022/04/01 05:32:38;;;;;;;5.00;2.67;;;;;;;;;;5100355;28;20487;-63
2022/04/01 05:35:04;;;;;;;9.88;2.80;;;;;;;;;;5112129;28;20032;-64
2022/04/01 05:37:31;;;;;;;6.75;2.95;;;;;;;;;;5110942;28;20028;-64
2022/04/01 05:39:58;;;;;;;7.53;2.95;;;;;;;;;;5112862;28;20023;-64
2022/04/01 05:42:25;;;;;;;4.43;2.55;;;;;;;;;;5113212;28;20036;-64
2022/04/01 05:44:51;;;;;;;5.77;2.93;;;;;;;;;;5111099;28;20052;-64
2022/04/01 05:47:17;;;;;;;4.90;3.13;;;;;;;;;;5098900;28;20098;-64
2022/04/01 05:49:44;;;;;;;5.50;2.40;;;;;;;;;;5108865;27;20525;-64
2022/04/01 05:52:10;;;;;;;4.45;2.58;;;;;;;;;;5105200;28;20384;-63
2022/04/01 05:54:37;;;;;;;6.00;2.55;;;;;;;;;;5109570;28;20032;-64
2022/04/01 05:57:02;;;;;;;3.47;2.43;;;;;;;;;;5100059;28;20484;-64
2022/04/01 05:59:28;;;;;;;5.65;3.30;;;;;;;;;;5105886;28;20063;-63
2022/04/01 06:02:12;;;;;;;4.70;2.75;;;;;;;;;;5111682;28;20050;-63
2022/04/01 06:04:55;;;;;;;5.67;2.40;;;;;;;;;;5108636;28;20035;-64
2022/04/01 06:07:30;;;;;;;6.90;2.92;;;;;;;;;;5107853;27;20442;-63
2022/04/01 06:10:13;;;;;;;5.28;2.90;;;;;;;;;;5105613;28;20015;-64
2022/04/01 06:12:38;;;;;;;5.73;2.83;;;;;;;;;;5111377;28;20031;-63
2022/04/01 06:15:18;;;;;;;6.36;3.28;;;;;;;;;;5100765;28;20077;-63
2022/04/01 06:18:10;;;;;;;6.50;3.13;;;;;;;;;;5092958;28;20039;-63
2022/04/01 06:20:37;;;;;;;4.10;3.10;;;;;;;;;;5106958;28;20135;-63
2022/04/01 06:23:21;;;;;;;5.67;2.90;;;;;;;;;;5112770;28;20102;-63
2022/04/01 06:25:51;;;;;;;4.93;2.90;;;;;;;;;;5108420;27;20023;-63
2022/04/01 06:28:24;;;;;;;6.07;2.88;;;;;;;;;;5100112;27;20028;-62
2022/04/01 06:30:49;;;;;;;6.80;3.53;;;;;;;;;;5105340;28;20026;-64
2022/04/01 06:33:37;;;;;;;6.00;2.90;;;;;;;;;;5103520;28;20478;-64
2022/04/01 06:36:04;;;;;;;7.05;3.40;;;;;;;;;;5099259;28;20375;-64
2022/04/01 06:38:39;;;;;;;4.80;2.90;;;;;;;;;;5110247;28;20391;-63
2022/04/01 06:41:06;;;;;;;6.20;3.35;;;;;;;;;;5110485;28;20102;-63
2022/04/01 06:43:31;;;;;;;5.70;3.45;;;;;;;;;;5109413;28;20055;-63
2022/04/01 06:45:56;;;;;;;5.57;3.60;;;;;;;;;;5104028;28;20470;-63
2022/04/01 06:48:22;;;;;;;4.73;2.83;;;;;;;;;;5112402;28;20148;-63
2022/04/01 06:50:49;;;;;;;5.30;3.80;;;;;;;;;;5111246;28;20051;-64
2022/04/01 06:53:15;;;;;;;5.07;3.93;;;;;;;;;;5112250;28;20032;-65
2022/04/01 06:55:40;;;;;;;5.97;3.73;;;;;;;;;;5109697;28;20034;-68
2022/04/01 06:58:11;;;;;;;6.78;4.10;;;;;;;;;;5102586;28;20039;-66
2022/04/01 07:00:36;;;;;;;4.75;3.80;;;;;;;;;;5093851;28;20434;-67
2022/04/01 07:03:01;;;;;;;4.77;3.93;;;;;;;;;;5102233;28;20024;-68
2022/04/01 07:05:28;;;;;;;9.85;4.78;;;;;;;;;;5121370;28;20020;-62
2022/04/01 07:07:53;;;;;;;6.75;4.07;;;;;;;;;;5105011;28;20008;-62
2022/04/01 07:10:19;;;;;;;7.07;4.57;;;;;;;;;;5106301;28;20680;-62
2022/04/01 07:12:45;;;;;;;7.80;5.00;;;;;;;;;;5106348;28;20411;-63
2022/04/01 07:15:11;;;;;;;6.13;4.10;;;;;;;;;;5110293;27;20051;-63
2022/04/01 07:17:36;;;;;;;6.37;4.33;;;;;;;;;;5109654;27;20051;-62
2022/04/01 07:20:03;;;;;;;8.23;5.03;;;;;;;;;;5111407;27;20016;-62
2022/04/01 07:22:28;;;;;;;7.40;4.83;;;;;;;;;;5109966;27;20365;-62
2022/04/01 07:24:53;;;;;;;6.83;4.60;;;;;;;;;;5108481;27;20024;-61
2022/04/01 07:27:18;;;;;;;9.23;4.17;;;;;;;;;;5108280;28;20027;-63
2022/04/01 07:29:43;;;;;;;7.47;4.93;;;;;;;;;;5109472;28;20032;-63
2022/04/01 07:34:52;;;;;;;7.90;5.03;;;;;;;;;;5107815;27;20031;-63
2022/04/01 07:37:22;;;;;;;8.33;5.33;;;;;;;;;;5111965;27;20019;-71
2022/04/01 07:39:47;;;;;;;5.85;5.25;;;;;;;;;;5108017;27;20481;-64
2022/04/01 07:42:12;;;;;;;7.25;4.78;;;;;;;;;;5112772;27;20026;-63
2022/04/01 07:44:37;;;;;;;7.40;5.70;;;;;;;;;;5114005;27;20027;-64
2022/04/01 07:47:03;;;;;;;8.23;5.57;;;;;;;;;;5109796;27;20107;-64
2022/04/01 07:49:28;;;;;;;6.93;5.78;;;;;;;;;;5100471;27;20030;-65
2022/04/01 07:51:53;;;;;;;8.43;5.70;;;;;;;;;;5110118;27;20023;-64
2022/04/01 07:54:19;;;;;;;7.33;5.33;;;;;;;;;;5100920;27;20011;-64
2022/04/01 07:56:44;;;;;;;6.85;5.82;;;;;;;;;;5104985;27;20072;-65
2022/04/01 07:59:10;;;;;;;7.23;5.20;;;;;;;;;;5109500;27;20047;-64
2022/04/01 08:01:35;;;;;;;6.80;5.43;;;;;;;;;;5111522;27;20027;-64
2022/04/01 08:04:01;;;;;;;6.67;5.33;;;;;;;;;;5111807;27;20567;-65
2022/04/01 08:06:26;;;;;;;7.77;5.73;;;;;;;;;;5112647;27;20072;-64
2022/04/01 08:08:52;;;;;;;5.87;5.27;;;;;;;;;;5107555;27;20498;-65
2022/04/01 08:11:17;;;;;;;6.93;5.80;;;;;;;;;;5108488;27;20051;-64
2022/04/01 08:13:42;;;;;;;7.20;5.43;;;;;;;;;;5105361;27;20019;-64
2022/04/01 08:16:08;;;;;;;6.73;5.50;;;;;;;;;;5108876;27;20480;-70
2022/04/01 08:18:34;;;;;;;6.43;5.80;;;;;;;;;;5112326;27;20488;-66
2022/04/01 08:20:59;;;;;;;7.30;6.37;;;;;;;;;;5106765;28;20035;-62
2022/04/01 08:23:24;;;;;;;6.70;5.83;;;;;;;;;;5108647;27;20032;-61
2022/04/01 08:25:49;;;;;;;6.73;6.03;;;;;;;;;;5109481;27;21237;-68
2022/04/01 08:28:15;;;;;;;7.90;6.43;;;;;;;;;;5107440;27;20065;-64
2022/04/01 08:30:41;;;;;;;7.40;6.30;;;;;;;;;;5105805;27;20026;-63
2022/04/01 08:33:06;;;;;;;8.50;6.53;;;;;;;;;;5109297;28;20433;-63
2022/04/01 08:35:33;;;;;;;7.80;6.00;;;;;;;;;;5114515;28;20015;-64
2022/04/01 08:37:58;;;;;;;7.60;6.60;;;;;;;;;;5101654;27;21310;-65
2022/04/01 08:40:23;;;;;;;6.57;5.93;;;;;;;;;;5107504;28;20027;-66
2022/04/01 08:42:49;;;;;;;7.93;5.72;;;;;;;;;;5111084;28;20020;-68
2022/04/01 08:45:18;;;;;;;7.55;5.20;;;;;;;;;;5112903;28;20027;-69
2022/04/01 08:47:43;;;;;;;8.80;6.40;;;;;;;;;;5094130;28;20031;-73
2022/04/01 08:50:11;;;;;;;7.72;6.78;;;;;;;;;;5100020;28;20017;-68
2022/04/01 08:52:37;;;;;;;7.97;6.18;;;;;;;;;;5103526;28;20024;-63
2022/04/01 08:55:03;;;;;;;9.45;7.35;;;;;;;;;;5114269;28;20023;-70
2022/04/01 08:57:33;;;;;;;9.25;7.50;;;;;;;;;;5107455;27;20039;-69
2022/04/01 09:00:00;;;;;;;8.57;7.57;;;;;;;;;;5111450;28;20044;-71
2022/04/01 09:02:26;;;;;;;8.60;7.77;;;;;;;;;;5111973;27;20043;-68
2022/04/01 09:05:02;;;;;;;11.20;8.20;;;;;;;;;;5109831;28;20024;-72
2022/04/01 09:07:27;;;;;;;11.07;8.10;;;;;;;;;;5113645;27;20027;-64
2022/04/01 09:09:59;;;;;;;6.97;6.27;;;;;;;;;;5110088;27;20032;-63
2022/04/01 09:12:25;;;;;;;10.77;7.97;;;;;;;;;;5113361;28;20284;-64
2022/04/01 09:14:52;;;;;;;9.40;7.47;;;;;;;;;;5110816;28;20472;-60
2022/04/01 09:17:17;;;;;;;8.80;7.50;;;;;;;;;;5110377;27;20484;-62
2022/04/01 09:19:43;;;;;;;7.57;6.77;;;;;;;;;;5100815;28;20024;-61
2022/04/01 09:22:16;;;;;;;8.27;7.03;;;;;;;;;;5113206;28;20491;-61
2022/04/01 09:24:55;;;;;;;9.40;7.50;;;;;;;;;;5110771;27;20015;-62
2022/04/01 09:27:35;;;;;;;8.83;6.60;;;;;;;;;;5107537;28;20081;-61
2022/04/01 09:30:00;;;;;;;7.97;6.13;;;;;;;;;;5113460;28;20460;-62
2022/04/01 09:32:35;;;;;;;8.83;6.90;;;;;;;;;;5126382;27;20080;-62
2022/04/01 09:35:00;;;;;;;7.93;7.05;;;;;;;;;;5104034;27;20069;-63
2022/04/01 09:37:35;;;;;;;6.80;6.10;;;;;;;;;;5109667;28;20441;-61
2022/04/01 09:40:00;;;;;;;6.85;6.20;;;;;;;;;;5113837;28;20020;-63
2022/04/01 09:42:25;;;;;;;9.07;7.00;;;;;;;;;;5112967;27;20043;-63
2022/04/01 09:44:52;;;;;;;7.47;6.63;;;;;;;;;;5110674;27;20031;-63
2022/04/01 09:47:19;;;;;;;7.93;7.10;;;;;;;;;;5112532;28;20476;-63
2022/04/01 09:49:46;;;;;;;7.67;6.37;;;;;;;;;;5112995;28;20028;-63
2022/04/01 09:52:12;;;;;;;8.93;6.30;;;;;;;;;;5111679;28;20114;-63
2022/04/01 09:54:44;;;;;;;7.80;7.00;;;;;;;;;;5105657;28;20443;-63
2022/04/01 09:57:10;;;;;;;9.83;7.03;;;;;;;;;;5098922;28;20468;-62
2022/04/01 09:59:44;;;;;;;9.10;7.40;;;;;;;;;;5065038;28;20432;-62
2022/04/01 10:02:09;;;;;;;8.53;7.13;;;;;;;;;;5065030;28;20063;-62
2022/04/01 10:04:34;;;;;;;9.30;8.00;;;;;;;;;;5054468;28;20033;-62
2022/04/01 10:07:01;;;;;;;8.70;7.60;;;;;;;;;;5066666;28;20021;-62
2022/04/01 10:09:26;;;;;;;8.23;6.83;;;;;;;;;;5064890;28;20104;-62
2022/04/01 10:11:52;;;;;;;7.53;6.17;;;;;;;;;;5049411;28;20468;-62
2022/04/01 10:14:25;;;;;;;10.37;8.17;;;;;;;;;;5048982;28;20013;-62
2022/04/01 10:16:50;;;;;;;9.43;7.40;;;;;;;;;;5064293;28;20025;-62
2022/04/01 10:19:28;;;;;;;9.53;6.77;;;;;;;;;;5056280;28;20032;-62
2022/04/01 10:21:53;;;;;;;11.03;7.30;;;;;;;;;;5064119;28;20660;-62
2022/04/01 10:24:38;;;;;;;8.07;7.17;;;;;;;;;;5052044;28;20025;-62
2022/04/01 10:27:23;;;;;;;9.80;6.77;;;;;;;;;;5055154;28;20108;-62
2022/04/01 10:29:48;;;;;;;8.38;6.50;;;;;;;;;;5061448;28;20120;-62
2022/04/01 10:32:27;;;;;;;9.47;6.20;;;;;;;;;;5066450;28;20037;-62
2022/04/01 10:34:53;;;;;;;8.50;5.97;;;;;;;;;;5068022;28;20028;-63
2022/04/01 10:37:18;;;;;;;7.47;6.77;;;;;;;;;;5066890;28;20028;-63
2022/04/01 10:39:48;;;;;;;9.43;7.73;;;;;;;;;;5068263;28;20075;-63
2022/04/01 10:42:13;;;;;;;8.50;6.83;;;;;;;;;;5068020;28;20477;-63
2022/04/01 10:44:49;;;;;;;10.17;7.87;;;;;;;;;;5054822;28;20018;-63
2022/04/01 10:47:14;;;;;;;7.87;6.43;;;;;;;;;;5061493;28;20033;-63
2022/04/01 10:52:23;;;;;;;8.43;7.03;;;;;;;;;;5061284;28;20104;-62
2022/04/01 10:54:50;;;;;;;8.00;6.90;;;;;;;;;;5048135;28;20057;-62
2022/04/01 10:57:26;;;;;;;9.90;7.30;;;;;;;;;;5050164;28;20041;-63
2022/04/01 10:59:51;;;;;;;8.73;7.30;;;;;;;;;;5053674;28;20041;-62
2022/04/01 11:02:18;;;;;;;7.83;6.87;;;;;;;;;;5051313;28;20029;-63
2022/04/01 11:04:44;;;;;;;8.80;7.30;;;;;;;;;;5048904;28;20020;-62
2022/04/01 11:07:37;;;;;;;9.97;7.70;;;;;;;;;;5059991;28;20032;-63
2022/04/01 11:10:06;;;;;;;8.40;7.07;;;;;;;;;;5056677;28;20029;-60
2022/04/01 11:12:39;;;;;;;7.83;6.93;;;;;;;;;;5053081;28;20025;-60
2022/04/01 11:15:08;;;;;;;11.77;7.63;;;;;;;;;;5040410;28;20013;-61
2022/04/01 11:17:33;;;;;;;8.33;6.60;;;;;;;;;;5053976;28;20028;-60
2022/04/01 11:19:59;;;;;;;8.64;7.74;;;;;;;;;;5051245;28;20025;-59
2022/04/01 11:22:35;;;;;;;10.23;7.27;;;;;;;;;;5053610;28;20123;-59
2022/04/01 11:25:00;;;;;;;8.80;7.93;;;;;;;;;;5054073;28;20495;-60
2022/04/01 11:27:26;;;;;;;9.40;8.40;;;;;;;;;;5048142;28;20029;-60
2022/04/01 11:30:12;;;;;;;8.53;7.63;;;;;;;;;;5044160;28;20070;-60
2022/04/01 11:32:37;;;;;;;10.57;7.60;;;;;;;;;;5052619;28;20017;-60
2022/04/01 11:35:04;;;;;;;10.67;7.60;;;;;;;;;;5049666;28;20018;-61
2022/04/01 11:37:34;;;;;;;8.80;6.87;;;;;;;;;;5052634;28;20013;-59
2022/04/01 11:40:11;;;;;;;8.73;7.00;;;;;;;;;;5053871;28;20546;-59
2022/04/01 11:43:08;;;;;;;8.00;6.30;;;;;;;;;;5033647;28;20026;-60
2022/04/01 11:45:36;;;;;;;8.10;5.63;;;;;;;;;;5027782;28;20049;-59
2022/04/01 11:48:12;;;;;;;7.67;6.30;;;;;;;;;;5040756;28;20130;-59
2022/04/01 11:50:40;;;;;;;8.20;6.23;;;;;;;;;;5049781;28;20088;-60
2022/04/01 11:53:06;;;;;;;9.17;5.73;;;;;;;;;;5062970;28;21109;-59
2022/04/01 11:55:32;;;;;;;7.40;5.80;;;;;;;;;;5052693;28;20025;-60
2022/04/01 11:57:57;;;;;;;6.47;5.47;;;;;;;;;;5034334;28;20053;-59
2022/04/01 12:00:23;;;;;;;9.20;6.07;;;;;;;;;;5051286;28;20032;-60
2022/04/01 12:02:52;;;;;;;8.23;5.83;;;;;;;;;;5048207;28;20120;-59
2022/04/01 12:05:18;;;;;;;8.57;5.00;;;;;;;;;;5036002;28;20400;-58
2022/04/01 12:10:36;;;;;;;8.00;5.30;;;;;;;;;;5056277;28;20491;-59
2022/04/01 12:13:03;;;;;;;5.90;4.23;;;;;;;;;;5048183;28;20033;-59
2022/04/01 12:15:35;;;;;;;6.83;5.80;;;;;;;;;;5049268;28;20028;-59
2022/04/01 12:18:01;;;;;;;6.67;4.63;;;;;;;;;;5054647;28;20120;-59
2022/04/01 12:20:28;;;;;;;6.77;4.20;;;;;;;;;;5050834;28;20016;-57
2022/04/01 12:22:54;;;;;;;6.43;4.77;;;;;;;;;;5052364;28;20114;-59
2022/04/01 12:25:19;;;;;;;6.07;4.87;;;;;;;;;;5045800;28;20473;-59
2022/04/01 12:27:54;;;;;;;6.57;4.47;;;;;;;;;;5037285;28;20428;-59
2022/04/01 12:30:19;;;;;;;;;;;;;;;;;;5051724;28;20025;-59
2022/04/01 12:32:53;;;;;;;7.65;5.53;;;;;;;;;;5044038;28;19912;-59
2022/04/01 12:35:18;;;;;;;6.37;4.50;;;;;;;;;;5048272;28;20075;-58
2022/04/01 12:37:43;;;;;;;6.37;5.27;;;;;;;;;;5046129;28;20405;-58
2022/04/01 12:40:10;;;;;;;6.72;5.40;;;;;;;;;;5037439;28;20386;-59
2022/04/01 12:42:38;;;;;;;8.07;4.10;;;;;;;;;;5051224;28;20370;-60
2022/04/01 12:45:05;;;;;;;7.40;4.88;;;;;;;;;;5060188;28;20016;-59
2022/04/01 12:47:32;;;;;;;10.67;5.50;;;;;;;;;;5040906;28;20092;-59
2022/04/01 12:49:58;;;;;;;7.20;5.00;;;;;;;;;;5051078;28;20020;-59
2022/04/01 12:52:27;;;;;;;8.45;5.65;;;;;;;;;;5046481;28;20466;-59
2022/04/01 12:54:53;;;;;;;7.10;5.53;;;;;;;;;;5046263;28;20026;-59
2022/04/01 12:57:19;;;;;;;8.23;5.30;;;;;;;;;;5033839;28;20021;-59
2022/04/01 12:59:46;;;;;;;6.70;5.27;;;;;;;;;;5046252;28;20196;-59
2022/04/01 13:02:12;;;;;;;7.33;5.13;;;;;;;;;;5051563;28;20021;-59
2022/04/01 13:04:39;;;;;;;9.50;5.20;;;;;;;;;;5052548;28;20017;-59
2022/04/01 13:07:06;;;;;;;7.80;4.70;;;;;;;;;;5063749;28;20067;-58
2022/04/01 13:09:31;;;;;;;7.95;4.30;;;;;;;;;;5049392;28;20040;-59
2022/04/01 13:11:58;;;;;;;7.55;5.00;;;;;;;;;;5057266;28;20116;-59
2022/04/01 13:14:24;;;;;;;8.43;5.53;;;;;;;;;;5052286;28;20021;-59
2022/04/01 13:16:50;;;;;;;8.30;5.00;;;;;;;;;;5052666;28;20470;-59
2022/04/01 13:19:16;;;;;;;5.43;4.18;;;;;;;;;;5057916;28;20029;-59
2022/04/01 13:21:42;;;;;;;6.53;3.90;;;;;;;;;;5055769;28;20107;-59
2022/04/01 13:24:07;;;;;;;6.80;4.05;;;;;;;;;;5048888;28;20104;-60
2022/04/01 13:26:32;;;;;;;5.85;3.92;;;;;;;;;;5054645;28;20027;-60
2022/04/01 13:28:57;;;;;;;4.22;2.70;;;;;;;;;;5046179;28;20033;-57
2022/04/01 13:31:23;;;;;;;4.82;3.25;;;;;;;;;;5035265;28;20425;-59
2022/04/01 13:33:48;;;;;;;6.75;3.75;;;;;;;;;;5041523;28;20025;-59
2022/04/01 13:36:13;;;;;;;5.93;3.88;;;;;;;;;;5044268;28;20021;-58
2022/04/01 13:38:38;;;;;;;7.78;4.10;;;;;;;;;;5073321;28;20039;-59
2022/04/01 13:41:03;;;;;;;5.80;3.65;;;;;;;;;;5051049;28;20029;-59
2022/04/01 13:43:29;;;;;;;8.02;3.97;;;;;;;;;;5046756;28;20021;-59
2022/04/01 13:45:54;;;;;;;6.78;4.10;;;;;;;;;;5056297;28;20273;-59
2022/04/01 13:48:19;;;;;;;4.80;3.92;;;;;;;;;;5036982;28;20041;-59
2022/04/01 13:50:46;;;;;;;7.38;3.80;;;;;;;;;;5042561;28;20047;-60
2022/04/01 13:53:11;;;;;;;6.70;4.53;;;;;;;;;;5067265;28;20033;-59
2022/04/01 13:55:36;;;;;;;7.57;5.15;;;;;;;;;;5069789;28;20028;-59
2022/04/01 13:58:01;;;;;;;5.88;4.95;;;;;;;;;;5034513;28;20045;-59
2022/04/01 14:00:27;;;;;;;7.35;3.85;;;;;;;;;;5034755;28;20664;-59
2022/04/01 14:02:52;;;;;;;6.05;3.90;;;;;;;;;;5063735;28;20020;-59
2022/04/01 14:05:17;;;;;;;5.95;3.83;;;;;;;;;;5042497;28;20021;-60
2022/04/01 14:07:43;;;;;;;5.40;3.95;;;;;;;;;;5051449;28;20388;-60
2022/04/01 14:10:08;;;;;;;5.15;4.65;;;;;;;;;;5050710;28;20440;-60
2022/04/01 14:12:33;;;;;;;8.05;4.30;;;;;;;;;;5054285;28;20057;-59
2022/04/01 14:14:59;;;;;;;10.05;5.65;;;;;;;;;;5045364;28;20021;-59
2022/04/01 14:17:25;;;;;;;9.75;4.30;;;;;;;;;;5049391;28;20036;-59
2022/04/01 14:19:51;;;;;;;7.65;4.32;;;;;;;;;;5051105;28;20047;-59
2022/04/01 14:22:16;;;;;;;7.18;3.90;;;;;;;;;;5051040;28;20009;-59
2022/04/01 14:24:41;;;;;;;8.57;4.47;;;;;;;;;;5056500;28;20108;-59
2022/04/01 14:27:07;;;;;;;7.20;4.15;;;;;;;;;;5040747;28;20033;-59
2022/04/01 14:32:16;;;;;;;7.43;4.35;;;;;;;;;;5049237;28;20031;-60
2022/04/01 14:34:41;;;;;;;4.82;3.42;;;;;;;;;;5052641;28;20431;-59
2022/04/01 14:37:07;;;;;;;5.80;3.47;;;;;;;;;;5065706;28;20469;-60
2022/04/01 14:39:33;;;;;;;7.32;4.30;;;;;;;;;;5056572;28;20025;-58
2022/04/01 14:41:58;;;;;;;5.78;3.90;;;;;;;;;;5049771;28;20032;-59
2022/04/01 14:44:24;;;;;;;6.80;4.00;;;;;;;;;;5047755;28;20128;-59
2022/04/01 14:46:50;;;;;;;5.57;3.40;;;;;;;;;;5053759;28;20535;-60
2022/04/01 14:49:15;;;;;;;4.40;3.35;;;;;;;;;;5053285;28;20036;-60
2022/04/01 14:51:40;;;;;;;6.18;3.60;;;;;;;;;;5054656;28;20105;-59
2022/04/01 14:54:06;;;;;;;7.43;3.20;;;;;;;;;;5054222;28;20044;-59
2022/04/01 14:56:31;;;;;;;5.40;3.20;;;;;;;;;;5047853;28;20033;-59